createdAt,value
2022-09-30T00:01:40.694Z,1.45
2022-09-30T00:04:11.111Z,1.53
2022-09-30T00:06:39.082Z,1.17
2022-09-30T00:09:07.246Z,1.48
2022-09-30T00:11:39.263Z,1.98
2022-09-30T00:14:13.416Z,1.27
2022-09-30T00:16:41.408Z,1.90
2022-09-30T00:19:09.731Z,1.27
2022-09-30T00:21:37.676Z,1.00
2022-09-30T00:24:08.375Z,1.23
2022-09-30T00:26:37.213Z,1.65
2022-09-30T00:29:06.089Z,2.58
2022-09-30T00:31:36.510Z,1.27
2022-09-30T00:34:08.643Z,1.40
2022-09-30T00:36:39.223Z,1.52
2022-09-30T00:39:09.856Z,1.30
2022-09-30T00:41:38.743Z,2.05
2022-09-30T00:44:44.482Z,2.03
2022-09-30T00:47:31.430Z,1.70
2022-09-30T00:50:02.846Z,1.58
2022-09-30T00:52:32.721Z,2.17
2022-09-30T00:55:03.180Z,3.38
2022-09-30T00:57:31.690Z,2.20
2022-09-30T00:59:59.772Z,1.70
2022-09-30T01:02:29.412Z,1.85
2022-09-30T01:04:58.024Z,2.45
2022-09-30T01:07:26.175Z,1.60
2022-09-30T01:09:54.311Z,2.13
2022-09-30T01:12:26.007Z,1.88
2022-09-30T01:14:58.014Z,2.40
2022-09-30T01:17:37.854Z,1.60
2022-09-30T01:23:08.339Z,1.50
2022-09-30T01:25:55.890Z,2.25
2022-09-30T01:28:52.499Z,2.20
2022-09-30T01:31:41.682Z,1.30
2022-09-30T01:34:17.931Z,2.38
2022-09-30T01:37:00.557Z,1.95
2022-09-30T01:39:39.606Z,1.38
2022-09-30T01:42:14.712Z,1.50
2022-09-30T01:44:53.432Z,1.17
2022-09-30T01:47:27.456Z,2.22
2022-09-30T01:50:00.641Z,1.90
2022-09-30T01:52:34.666Z,1.27
2022-09-30T01:55:08.128Z,1.63
2022-09-30T01:57:44.920Z,1.73
2022-09-30T02:00:15.254Z,1.52
2022-09-30T02:02:50.005Z,1.95
2022-09-30T02:05:22.785Z,2.00
2022-09-30T02:07:55.481Z,2.85
2022-09-30T02:10:28.236Z,2.53
2022-09-30T02:12:59.419Z,1.83
2022-09-30T02:15:36.405Z,2.60
2022-09-30T02:18:19.744Z,1.92
2022-09-30T02:20:52.106Z,2.30
2022-09-30T02:23:26.378Z,1.98
2022-09-30T02:26:00.325Z,1.90
2022-09-30T02:28:30.327Z,2.22
2022-09-30T02:31:01.521Z,2.00
2022-09-30T02:33:35.903Z,1.67
2022-09-30T02:36:08.027Z,2.47
2022-09-30T02:38:41.953Z,1.88
2022-09-30T02:41:15.066Z,1.65
2022-09-30T02:43:43.316Z,2.08
2022-09-30T02:46:19.490Z,2.80
2022-09-30T02:48:55.941Z,1.88
2022-09-30T02:51:33.794Z,2.05
2022-09-30T02:54:06.310Z,2.15
2022-09-30T02:56:45.796Z,1.90
2022-09-30T02:59:14.680Z,2.00
2022-09-30T03:01:44.014Z,2.20
2022-09-30T03:04:17.255Z,2.35
2022-09-30T03:06:45.332Z,2.60
2022-09-30T03:09:13.571Z,2.00
2022-09-30T03:11:42.081Z,2.60
2022-09-30T03:14:33.026Z,1.60
2022-09-30T03:17:17.139Z,2.97
2022-09-30T03:20:06.719Z,2.65
2022-09-30T03:22:55.720Z,1.95
2022-09-30T03:25:36.238Z,1.83
2022-09-30T03:28:16.223Z,2.28
2022-09-30T03:30:49.826Z,2.50
2022-09-30T03:33:24.096Z,1.65
2022-09-30T03:36:01.372Z,1.92
2022-09-30T03:38:43.524Z,1.70
2022-09-30T03:41:17.702Z,2.42
2022-09-30T03:43:51.382Z,3.25
2022-09-30T03:46:24.346Z,1.77
2022-09-30T03:48:56.059Z,2.38
2022-09-30T03:51:25.886Z,2.35
2022-09-30T03:56:27.397Z,2.60
2022-09-30T03:58:55.462Z,1.92
2022-09-30T04:01:24.456Z,2.28
2022-09-30T04:03:54.739Z,1.77
2022-09-30T04:06:25.854Z,2.35
2022-09-30T04:08:54.788Z,2.38
2022-09-30T04:11:22.856Z,2.10
2022-09-30T04:13:50.826Z,1.77
2022-09-30T04:16:18.999Z,2.55
2022-09-30T04:18:47.044Z,1.65
2022-09-30T04:21:16.117Z,1.80
2022-09-30T04:23:45.366Z,2.63
2022-09-30T04:26:15.118Z,3.05
2022-09-30T04:31:12.843Z,2.20
2022-09-30T04:33:41.205Z,2.80
2022-09-30T04:36:09.526Z,2.60
2022-09-30T04:38:37.618Z,2.28
2022-09-30T04:41:08.039Z,2.00
2022-09-30T04:43:36.156Z,2.08
2022-09-30T04:46:04.673Z,1.83
2022-09-30T04:48:32.842Z,2.42
2022-09-30T04:51:01.078Z,2.05
2022-09-30T04:53:29.244Z,3.08
2022-09-30T04:56:00.940Z,2.72
2022-09-30T04:58:36.725Z,2.50
2022-09-30T05:01:06.839Z,2.78
2022-09-30T05:03:35.262Z,2.90
2022-09-30T05:06:04.019Z,2.63
2022-09-30T05:08:33.814Z,3.00
2022-09-30T05:13:35.032Z,2.38
2022-09-30T05:16:03.793Z,2.50
2022-09-30T05:18:33.948Z,2.17
2022-09-30T05:21:03.055Z,3.03
2022-09-30T05:23:32.869Z,2.80
2022-09-30T05:28:31.171Z,1.80
2022-09-30T05:31:02.650Z,2.30
2022-09-30T05:33:31.448Z,2.60
2022-09-30T05:36:01.690Z,2.03
2022-09-30T05:38:29.900Z,2.30
2022-09-30T05:40:58.005Z,3.20
2022-09-30T05:43:26.081Z,2.75
2022-09-30T05:45:55.386Z,2.38
2022-09-30T05:48:26.226Z,2.42
2022-09-30T05:50:55.464Z,2.28
2022-09-30T05:53:23.888Z,2.30
2022-09-30T05:55:52.072Z,1.88
2022-09-30T05:58:21.329Z,2.00
2022-09-30T06:00:50.287Z,2.03
2022-09-30T06:03:19.054Z,2.23
2022-09-30T06:05:48.351Z,2.10
2022-09-30T06:08:17.065Z,3.25
2022-09-30T06:10:46.536Z,2.08
2022-09-30T06:13:14.789Z,2.58
2022-09-30T06:15:42.711Z,2.30
2022-09-30T06:18:15.808Z,2.42
2022-09-30T06:20:45.712Z,2.47
2022-09-30T06:23:15.081Z,2.58
2022-09-30T06:25:44.566Z,2.00
2022-09-30T06:28:12.805Z,3.53
2022-09-30T06:30:40.964Z,2.38
2022-09-30T06:33:08.904Z,2.05
2022-09-30T06:35:37.007Z,2.72
2022-09-30T06:38:05.239Z,2.28
2022-09-30T06:40:34.647Z,2.10
2022-09-30T06:43:03.146Z,1.83
2022-09-30T06:45:33.288Z,1.67
2022-09-30T06:48:02.930Z,2.45
2022-09-30T06:50:31.738Z,2.55
2022-09-30T06:53:00.135Z,2.25
2022-09-30T06:55:28.580Z,3.00
2022-09-30T06:57:58.456Z,3.03
2022-09-30T07:02:56.818Z,2.58
2022-09-30T07:05:26.390Z,2.53
2022-09-30T07:07:55.000Z,2.20
2022-09-30T07:10:23.137Z,2.00
2022-09-30T07:12:51.935Z,2.75
2022-09-30T07:15:22.086Z,2.67
2022-09-30T07:17:53.389Z,2.92
2022-09-30T07:20:21.378Z,3.08
2022-09-30T07:22:49.257Z,2.85
2022-09-30T07:25:17.951Z,2.75
2022-09-30T07:27:46.719Z,2.60
2022-09-30T07:30:23.969Z,1.83
2022-09-30T07:32:55.526Z,2.10
2022-09-30T07:35:23.599Z,2.38
2022-09-30T07:37:51.606Z,2.70
2022-09-30T07:40:19.588Z,3.05
2022-09-30T07:42:47.522Z,3.25
2022-09-30T07:45:16.904Z,2.88
2022-09-30T07:47:46.639Z,2.50
2022-09-30T07:50:19.113Z,2.55
2022-09-30T07:52:47.113Z,2.05
2022-09-30T07:55:15.263Z,2.00
2022-09-30T07:57:43.243Z,2.97
2022-09-30T08:00:40.506Z,3.10
2022-09-30T08:03:00.151Z,2.13
2022-09-30T08:05:29.482Z,2.65
2022-09-30T08:07:57.497Z,2.08
2022-09-30T08:10:25.500Z,2.17
2022-09-30T08:12:56.057Z,2.97
2022-09-30T08:15:27.118Z,2.85
2022-09-30T08:17:55.187Z,3.00
2022-09-30T08:20:23.218Z,2.88
2022-09-30T08:22:54.911Z,2.67
2022-09-30T08:25:23.301Z,2.55
2022-09-30T08:27:51.912Z,3.78
2022-09-30T08:30:19.768Z,2.58
2022-09-30T08:32:47.671Z,2.55
2022-09-30T08:35:15.667Z,3.33
2022-09-30T08:37:43.713Z,2.70
2022-09-30T08:40:20.977Z,3.00
2022-09-30T08:43:10.133Z,2.60
2022-09-30T08:45:52.312Z,2.45
2022-09-30T08:48:33.970Z,2.28
2022-09-30T08:51:15.874Z,2.58
2022-09-30T08:53:47.407Z,2.67
2022-09-30T08:56:23.219Z,2.25
2022-09-30T08:58:57.956Z,2.42
2022-09-30T09:01:32.811Z,3.05
2022-09-30T09:04:03.604Z,2.97
2022-09-30T09:06:38.446Z,2.40
2022-09-30T09:09:37.015Z,2.70
2022-09-30T09:12:15.546Z,2.95
2022-09-30T09:14:56.903Z,3.88
2022-09-30T09:17:37.909Z,3.00
2022-09-30T09:20:14.389Z,2.75
2022-09-30T09:22:44.369Z,3.08
2022-09-30T09:25:15.464Z,2.55
2022-09-30T09:27:52.534Z,3.50
2022-09-30T09:30:22.887Z,3.20
2022-09-30T09:32:55.174Z,5.60
2022-09-30T09:35:34.968Z,3.40
2022-09-30T09:38:26.320Z,2.95
2022-09-30T09:41:08.968Z,3.90
2022-09-30T09:43:51.287Z,2.85
2022-09-30T09:46:26.045Z,2.80
2022-09-30T09:49:29.704Z,2.90
2022-09-30T09:52:24.145Z,3.78
2022-09-30T09:54:56.596Z,3.30
2022-09-30T09:57:27.763Z,2.92
2022-09-30T10:02:34.331Z,2.65
2022-09-30T10:05:03.850Z,2.95
2022-09-30T10:07:33.657Z,3.58
2022-09-30T10:10:13.498Z,3.35
2022-09-30T10:12:42.473Z,2.83
2022-09-30T10:15:22.184Z,2.65
2022-09-30T10:20:28.814Z,4.13
2022-09-30T10:23:10.108Z,3.35
2022-09-30T10:25:38.124Z,2.80
2022-09-30T10:28:24.903Z,2.95
2022-09-30T10:30:58.008Z,3.05
2022-09-30T10:33:31.880Z,3.40
2022-09-30T10:36:14.669Z,3.08
2022-09-30T10:39:04.099Z,3.42
2022-09-30T10:41:37.841Z,2.55
2022-09-30T10:44:13.368Z,2.67
2022-09-30T10:46:45.591Z,1.83
2022-09-30T10:49:32.118Z,2.45
2022-09-30T10:52:05.055Z,2.03
2022-09-30T10:54:47.002Z,2.72
2022-09-30T10:57:17.104Z,2.55
2022-09-30T10:59:46.654Z,2.33
2022-09-30T11:05:03.740Z,2.13
2022-09-30T11:07:40.559Z,3.17
2022-09-30T11:10:23.637Z,3.17
2022-09-30T11:13:01.074Z,1.95
2022-09-30T11:15:32.863Z,1.80
2022-09-30T11:18:08.347Z,1.73
2022-09-30T11:20:41.929Z,2.10
2022-09-30T11:23:20.473Z,2.10
2022-09-30T11:25:55.068Z,1.20
2022-09-30T11:28:44.050Z,2.00
2022-09-30T11:31:23.306Z,2.05
2022-09-30T11:34:06.602Z,1.50
2022-09-30T11:36:43.173Z,1.58
2022-09-30T11:39:27.022Z,1.17
2022-09-30T11:42:02.113Z,1.60
2022-09-30T11:44:35.367Z,1.95
2022-09-30T11:47:24.382Z,1.67
2022-09-30T11:50:16.177Z,1.15
2022-09-30T11:52:56.528Z,1.23
2022-09-30T11:55:38.259Z,1.48
2022-09-30T11:58:29.022Z,1.63
2022-09-30T12:01:08.789Z,1.08
2022-09-30T12:03:43.356Z,1.05
2022-09-30T12:06:19.358Z,1.15
2022-09-30T12:08:52.864Z,1.95
2022-09-30T12:11:28.743Z,1.42
2022-09-30T12:14:01.939Z,1.38
2022-09-30T12:16:33.150Z,1.10
2022-09-30T12:19:12.704Z,1.30
2022-09-30T12:21:50.868Z,1.30
2022-09-30T12:24:26.406Z,1.08
2022-09-30T12:26:55.300Z,1.30
2022-09-30T12:29:47.589Z,0.85
2022-09-30T12:33:10.710Z,0.90
2022-09-30T12:36:02.766Z,1.23
2022-09-30T12:38:49.652Z,1.33
2022-09-30T12:41:39.049Z,1.05
2022-09-30T12:49:27.681Z,1.23
2022-09-30T12:51:58.095Z,1.88
2022-09-30T12:54:32.040Z,1.40
2022-09-30T12:57:03.841Z,1.52
2022-09-30T12:59:34.918Z,1.15
2022-09-30T13:02:06.208Z,1.13
2022-09-30T13:04:36.638Z,1.60
2022-09-30T13:07:14.465Z,1.15
2022-09-30T13:10:03.331Z,1.55
2022-09-30T13:12:43.118Z,1.10
2022-09-30T13:15:40.103Z,1.40
2022-09-30T13:18:46.073Z,1.10
2022-09-30T13:21:24.797Z,1.50
2022-09-30T13:23:54.581Z,0.97
2022-09-30T13:29:48.390Z,1.60
2022-09-30T13:32:33.782Z,1.73
2022-09-30T13:35:02.026Z,1.15
2022-09-30T13:37:37.746Z,1.38
2022-09-30T13:40:14.006Z,1.75
2022-09-30T13:42:51.420Z,1.50
2022-09-30T13:45:24.347Z,1.50
2022-09-30T13:48:03.455Z,1.52
2022-09-30T13:50:34.460Z,1.97
2022-09-30T13:53:06.760Z,1.25
2022-09-30T13:55:41.062Z,1.27
2022-09-30T13:58:30.131Z,1.85
2022-09-30T14:01:04.243Z,1.55
2022-09-30T14:03:50.192Z,1.77
2022-09-30T14:06:32.135Z,1.38
2022-09-30T14:09:41.072Z,1.60
2022-09-30T14:12:23.080Z,1.25
2022-09-30T14:15:18.091Z,1.83
2022-09-30T14:18:09.602Z,1.60
2022-09-30T14:20:49.529Z,1.85
2022-09-30T14:23:20.157Z,2.33
2022-09-30T14:25:57.816Z,1.88
2022-09-30T14:28:34.605Z,2.20
2022-09-30T14:31:13.048Z,1.95
2022-09-30T14:33:42.605Z,1.80
2022-09-30T14:36:15.650Z,2.03
2022-09-30T14:38:46.936Z,1.60
2022-09-30T14:41:20.697Z,1.20
2022-09-30T14:43:52.802Z,1.52
2022-09-30T14:46:30.513Z,1.92
2022-09-30T14:49:04.430Z,1.50
2022-09-30T14:51:38.350Z,1.70
2022-09-30T14:54:16.451Z,1.70
2022-09-30T14:56:44.934Z,2.20
2022-09-30T14:59:18.762Z,2.13
2022-09-30T15:01:51.213Z,1.88
2022-09-30T15:04:22.994Z,1.90
2022-09-30T15:06:53.051Z,1.73
2022-09-30T15:09:24.770Z,1.77
2022-09-30T15:11:52.900Z,2.17
2022-09-30T15:14:23.252Z,2.03
2022-09-30T15:16:54.345Z,2.13
2022-09-30T15:19:25.270Z,2.40
2022-09-30T15:21:55.747Z,0.95
2022-09-30T15:24:27.235Z,1.48
2022-09-30T15:26:57.087Z,1.30
2022-09-30T15:32:01.090Z,1.48
2022-09-30T15:34:30.405Z,1.25
2022-09-30T15:37:06.266Z,1.35
2022-09-30T15:39:54.978Z,0.73
2022-09-30T15:42:32.147Z,0.80
2022-09-30T15:45:00.276Z,1.33
2022-09-30T15:47:29.867Z,1.25
2022-09-30T15:49:58.029Z,1.35
2022-09-30T15:52:36.605Z,1.77
2022-09-30T15:55:36.655Z,0.75
2022-09-30T15:58:05.483Z,1.13
2022-09-30T16:00:39.969Z,0.77
2022-09-30T16:03:27.752Z,1.20
2022-09-30T16:06:07.033Z,1.00
2022-09-30T16:08:42.522Z,1.10
2022-09-30T16:11:10.969Z,1.60
2022-09-30T16:13:45.228Z,1.23
2022-09-30T16:16:21.371Z,1.73
2022-09-30T16:18:51.960Z,1.40
2022-09-30T16:21:40.459Z,1.55
2022-09-30T16:24:44.904Z,1.13
2022-09-30T16:27:26.083Z,1.17
2022-09-30T16:29:54.092Z,1.40
2022-09-30T16:32:22.576Z,1.40
2022-09-30T16:34:52.013Z,1.15
2022-09-30T16:37:22.066Z,1.98
2022-09-30T16:39:50.605Z,1.10
2022-09-30T16:42:20.145Z,1.45
2022-09-30T16:44:48.086Z,0.93
2022-09-30T16:47:17.535Z,1.63
2022-09-30T16:49:47.180Z,2.03
2022-09-30T16:52:17.326Z,2.67
2022-09-30T16:54:45.428Z,2.17
2022-09-30T16:57:15.882Z,3.40
2022-09-30T16:59:44.542Z,3.15
2022-09-30T17:02:15.497Z,2.53
2022-09-30T17:04:45.291Z,1.98
2022-09-30T17:07:17.583Z,2.30
2022-09-30T17:09:45.511Z,2.53
2022-09-30T17:12:13.833Z,2.50
2022-09-30T17:14:43.686Z,2.42
2022-09-30T17:17:13.730Z,2.00
2022-09-30T17:19:42.509Z,1.63
2022-09-30T17:22:10.439Z,1.65
2022-09-30T17:24:39.651Z,1.88
2022-09-30T17:27:07.773Z,2.33
2022-09-30T17:29:41.787Z,2.70
2022-09-30T17:32:10.556Z,2.00
2022-09-30T17:34:38.933Z,2.40
2022-09-30T17:39:36.059Z,2.27
2022-09-30T17:42:23.018Z,2.00
2022-09-30T17:44:52.400Z,2.13
2022-09-30T17:47:21.254Z,1.92
2022-09-30T17:49:49.401Z,1.50
2022-09-30T17:52:18.101Z,1.63
2022-09-30T17:54:51.101Z,1.48
2022-09-30T17:57:22.037Z,1.67
2022-09-30T17:59:50.132Z,1.90
2022-09-30T18:02:18.354Z,2.17
2022-09-30T18:04:46.524Z,1.55
2022-09-30T18:07:14.484Z,1.15
2022-09-30T18:09:42.424Z,1.83
2022-09-30T18:12:10.398Z,1.50
2022-09-30T18:14:39.672Z,1.55
2022-09-30T18:17:07.727Z,2.88
2022-09-30T18:19:36.113Z,2.92
2022-09-30T18:22:04.214Z,2.60
2022-09-30T18:24:50.154Z,2.20
2022-09-30T18:27:21.036Z,2.67
2022-09-30T18:29:50.558Z,2.63
2022-09-30T18:32:18.509Z,2.60
2022-09-30T18:34:46.596Z,2.47
2022-09-30T18:37:14.576Z,2.92
2022-09-30T18:39:42.560Z,2.65
2022-09-30T18:42:10.539Z,2.08
2022-09-30T18:44:38.519Z,2.90
2022-09-30T18:47:07.874Z,2.20
2022-09-30T18:49:36.049Z,2.42
2022-09-30T18:52:04.995Z,2.15
2022-09-30T18:54:33.638Z,3.30
2022-09-30T18:57:01.997Z,2.27
2022-09-30T18:59:30.065Z,2.85
2022-09-30T19:01:59.639Z,2.83
2022-09-30T19:04:29.028Z,3.05
2022-09-30T19:06:57.143Z,2.10
2022-09-30T19:09:26.539Z,2.15
2022-09-30T19:11:55.513Z,2.33
2022-09-30T19:14:24.557Z,2.87
2022-09-30T19:16:52.853Z,2.80
2022-09-30T19:19:23.095Z,3.25
2022-09-30T19:21:52.849Z,2.28
2022-09-30T19:26:55.568Z,2.92
2022-09-30T19:29:23.512Z,2.45
2022-09-30T19:31:51.673Z,2.05
2022-09-30T19:34:30.880Z,2.17
2022-09-30T19:37:01.651Z,2.20
2022-09-30T19:39:41.549Z,3.05
2022-09-30T19:42:12.702Z,1.95
2022-09-30T19:44:41.819Z,2.70
2022-09-30T19:47:09.930Z,2.67
2022-09-30T19:49:38.018Z,1.90
2022-09-30T19:52:18.470Z,2.35
2022-09-30T19:54:48.330Z,2.25
2022-09-30T19:57:16.352Z,1.83
2022-09-30T19:59:45.034Z,1.70
2022-09-30T20:02:13.092Z,2.05
2022-09-30T20:04:43.703Z,1.70
2022-09-30T20:07:14.882Z,2.33
2022-09-30T20:09:43.596Z,2.53
2022-09-30T20:12:11.747Z,2.10
2022-09-30T20:14:57.495Z,2.47
2022-09-30T20:17:25.493Z,3.92
2022-09-30T20:20:07.391Z,2.38
2022-09-30T20:22:36.789Z,1.45
2022-09-30T20:25:05.628Z,2.88
2022-09-30T20:27:33.631Z,1.90
2022-09-30T20:30:01.755Z,2.78
2022-09-30T20:32:31.152Z,2.33
2022-09-30T20:34:59.267Z,2.92
2022-09-30T20:37:27.243Z,3.08
2022-09-30T20:39:57.590Z,2.83
2022-09-30T20:42:28.143Z,2.72
2022-09-30T20:45:01.001Z,3.33
2022-09-30T20:47:28.916Z,3.65
2022-09-30T20:49:58.377Z,2.38
2022-09-30T20:52:26.949Z,4.60
2022-09-30T20:55:00.333Z,4.05
2022-09-30T20:57:29.754Z,3.55
2022-09-30T20:59:58.363Z,3.20
2022-09-30T21:02:27.999Z,3.97
2022-09-30T21:07:26.357Z,3.80
2022-09-30T21:09:55.751Z,4.05
2022-09-30T21:12:23.774Z,3.55
2022-09-30T21:14:51.665Z,4.97
2022-09-30T21:17:19.650Z,4.13
2022-09-30T21:19:47.568Z,4.85
2022-09-30T21:22:17.090Z,3.65
2022-09-30T21:24:45.152Z,3.70
2022-09-30T21:27:14.703Z,3.42
2022-09-30T21:29:43.584Z,3.50
2022-09-30T21:32:11.625Z,4.93
2022-09-30T21:34:39.715Z,3.63
2022-09-30T21:37:07.899Z,3.58
2022-09-30T21:39:35.806Z,3.47
2022-09-30T21:42:04.622Z,2.92
2022-09-30T21:44:33.870Z,2.85
2022-09-30T21:47:01.871Z,3.60
2022-09-30T21:49:29.802Z,2.83
2022-09-30T21:51:57.751Z,3.25
2022-09-30T21:54:25.721Z,2.83
2022-09-30T21:56:53.708Z,2.92
2022-09-30T21:59:21.670Z,3.33
2022-09-30T22:01:52.518Z,2.95
2022-09-30T22:04:20.517Z,2.63
2022-09-30T22:06:48.477Z,3.03
2022-09-30T22:09:16.858Z,3.35
2022-09-30T22:11:44.872Z,3.40
2022-09-30T22:14:12.961Z,3.25
2022-09-30T22:16:40.929Z,3.33
2022-09-30T22:19:10.242Z,3.13
2022-09-30T22:21:38.562Z,3.28
2022-09-30T22:24:07.962Z,4.40
2022-09-30T22:26:37.011Z,3.35
2022-09-30T22:29:07.502Z,3.30
2022-09-30T22:31:35.874Z,3.97
2022-09-30T22:34:23.500Z,3.25
2022-09-30T22:37:10.753Z,3.78
2022-09-30T22:39:38.770Z,4.15
2022-09-30T22:42:07.202Z,3.42
2022-09-30T22:44:38.154Z,3.38
2022-09-30T22:47:09.374Z,3.45
2022-09-30T22:49:37.291Z,4.50
2022-09-30T22:52:07.082Z,3.92
2022-09-30T22:54:36.157Z,3.30
2022-09-30T22:57:07.659Z,3.45
2022-09-30T22:59:36.234Z,3.22
2022-09-30T23:02:05.043Z,3.58
2022-09-30T23:04:33.349Z,4.07
2022-09-30T23:07:01.212Z,3.50
2022-09-30T23:09:31.118Z,3.85
2022-09-30T23:11:59.118Z,3.15
2022-09-30T23:14:27.062Z,3.30
2022-09-30T23:16:55.307Z,3.95
2022-09-30T23:19:23.262Z,4.55
2022-09-30T23:21:51.160Z,3.38
2022-09-30T23:24:19.426Z,3.78
2022-09-30T23:26:49.747Z,3.55
2022-09-30T23:29:17.810Z,3.15
2022-09-30T23:31:45.877Z,3.38
2022-09-30T23:34:14.108Z,3.00
2022-09-30T23:36:42.045Z,3.40
2022-09-30T23:39:18.098Z,3.72
2022-09-30T23:41:46.401Z,3.67
2022-09-30T23:44:17.742Z,3.13
2022-09-30T23:47:05.762Z,3.90
2022-09-30T23:49:35.228Z,3.17
2022-09-30T23:52:04.774Z,3.13
2022-09-30T23:57:01.293Z,3.30
2022-09-30T23:59:31.106Z,4.13
